createdAt,value
2022-08-28T00:01:37.217Z,17.70
2022-08-28T00:04:10.563Z,17.80
2022-08-28T00:06:43.910Z,17.60
2022-08-28T00:09:17.771Z,18.20
2022-08-28T00:11:51.120Z,17.70
2022-08-28T00:14:25.536Z,17.20
2022-08-28T00:16:58.973Z,18.10
2022-08-28T00:19:36.636Z,17.10
2022-08-28T00:22:13.027Z,20.30
2022-08-28T00:24:49.885Z,20.30
2022-08-28T00:27:58.892Z,15.20
2022-08-28T00:30:35.254Z,16.70
2022-08-28T00:33:15.105Z,15.10
2022-08-28T00:35:49.423Z,15.60
2022-08-28T00:38:27.842Z,23.30
2022-08-28T00:41:04.917Z,18.30
2022-08-28T00:43:49.811Z,19.40
2022-08-28T00:46:25.562Z,16.00
2022-08-28T00:48:59.085Z,19.10
2022-08-28T00:51:51.278Z,17.00
2022-08-28T00:54:25.795Z,16.50
2022-08-28T00:56:59.521Z,19.10
2022-08-28T00:59:33.939Z,16.60
2022-08-28T01:02:09.287Z,19.00
2022-08-28T01:04:43.045Z,18.90
2022-08-28T01:07:17.071Z,16.60
2022-08-28T01:09:54.638Z,17.20
2022-08-28T01:12:32.070Z,22.10
2022-08-28T01:15:14.082Z,14.40
2022-08-28T01:17:53.241Z,17.40
2022-08-28T01:20:33.585Z,18.20
2022-08-28T01:23:40.161Z,20.30
2022-08-28T01:26:14.327Z,19.00
2022-08-28T01:28:48.208Z,16.30
2022-08-28T01:31:22.739Z,19.70
2022-08-28T01:33:56.287Z,17.00
2022-08-28T01:36:29.784Z,17.40
2022-08-28T01:39:13.929Z,17.60
2022-08-28T01:41:48.546Z,15.20
2022-08-28T01:44:25.258Z,17.70
2022-08-28T01:47:00.147Z,15.80
2022-08-28T01:49:33.639Z,14.30
2022-08-28T01:52:07.433Z,18.70
2022-08-28T01:54:42.864Z,16.10
2022-08-28T01:57:16.992Z,15.20
2022-08-28T01:59:55.252Z,15.80
2022-08-28T02:02:29.452Z,17.50
2022-08-28T02:05:02.712Z,18.10
2022-08-28T02:07:35.857Z,15.30
2022-08-28T02:10:12.573Z,18.90
2022-08-28T02:12:45.779Z,16.00
2022-08-28T02:15:19.074Z,17.60
2022-08-28T02:17:57.963Z,16.20
2022-08-28T02:20:34.263Z,17.80
2022-08-28T02:23:08.403Z,17.70
2022-08-28T02:25:42.179Z,20.00
2022-08-28T02:28:15.645Z,19.30
2022-08-28T02:30:49.475Z,15.00
2022-08-28T02:33:25.741Z,18.10
2022-08-28T02:35:59.075Z,17.70
2022-08-28T02:38:32.131Z,19.30
2022-08-28T02:41:05.742Z,20.20
2022-08-28T02:43:38.732Z,22.40
2022-08-28T02:46:12.356Z,22.70
2022-08-28T02:48:46.584Z,20.80
2022-08-28T02:51:20.773Z,16.40
2022-08-28T02:53:54.352Z,22.70
2022-08-28T02:56:28.531Z,17.80
2022-08-28T02:59:01.795Z,16.40
2022-08-28T03:01:35.146Z,22.80
2022-08-28T03:04:08.581Z,18.20
2022-08-28T03:06:42.747Z,18.80
2022-08-28T03:09:16.261Z,19.40
2022-08-28T03:11:49.771Z,16.30
2022-08-28T03:14:28.997Z,14.80
2022-08-28T03:17:02.622Z,15.10
2022-08-28T03:19:35.969Z,16.80
2022-08-28T03:22:09.443Z,20.30
2022-08-28T03:24:43.332Z,15.90
2022-08-28T03:27:16.570Z,16.10
2022-08-28T03:29:50.412Z,19.50
2022-08-28T03:32:24.536Z,26.50
2022-08-28T03:35:03.821Z,21.70
2022-08-28T03:37:37.120Z,17.60
2022-08-28T03:40:11.486Z,18.40
2022-08-28T03:42:52.924Z,18.00
2022-08-28T03:45:28.315Z,17.00
2022-08-28T03:48:01.905Z,15.90
2022-08-28T03:50:36.185Z,16.00
2022-08-28T03:53:09.488Z,16.50
2022-08-28T03:55:47.433Z,16.10
2022-08-28T03:58:21.471Z,21.20
2022-08-28T04:00:54.765Z,19.20
2022-08-28T04:03:27.719Z,18.70
2022-08-28T04:06:01.131Z,18.90
2022-08-28T04:08:34.562Z,18.10
2022-08-28T04:11:08.041Z,18.80
2022-08-28T04:13:42.238Z,19.80
2022-08-28T04:16:20.309Z,24.30
2022-08-28T04:18:53.771Z,16.50
2022-08-28T04:21:28.601Z,20.20
2022-08-28T04:24:03.051Z,18.60
2022-08-28T04:26:38.771Z,20.00
2022-08-28T04:29:12.081Z,15.60
2022-08-28T04:31:45.232Z,18.00
2022-08-28T04:34:18.639Z,19.00
2022-08-28T04:36:54.391Z,17.20
2022-08-28T04:39:27.505Z,19.00
2022-08-28T04:42:00.582Z,18.60
2022-08-28T04:44:33.778Z,22.40
2022-08-28T04:47:06.813Z,16.40
2022-08-28T04:49:41.152Z,18.80
2022-08-28T04:52:14.271Z,20.90
2022-08-28T04:54:47.763Z,17.90
2022-08-28T04:57:20.986Z,18.30
2022-08-28T04:59:53.967Z,17.90
2022-08-28T05:02:27.057Z,13.70
2022-08-28T05:05:00.217Z,14.40
2022-08-28T05:07:33.365Z,16.00
2022-08-28T05:10:06.187Z,15.10
2022-08-28T05:12:39.650Z,14.50
2022-08-28T05:15:13.172Z,15.30
2022-08-28T05:17:47.005Z,15.70
2022-08-28T05:20:19.957Z,15.40
2022-08-28T05:22:52.613Z,16.20
2022-08-28T05:25:25.393Z,12.20
2022-08-28T05:28:09.908Z,15.90
2022-08-28T05:30:56.205Z,15.30
2022-08-28T05:33:30.352Z,14.00
2022-08-28T05:36:08.806Z,18.90
2022-08-28T05:38:43.383Z,13.70
2022-08-28T05:41:22.681Z,20.90
2022-08-28T05:43:55.695Z,18.60
2022-08-28T05:46:30.815Z,20.30
2022-08-28T05:49:09.617Z,14.90
2022-08-28T05:51:45.473Z,16.50
2022-08-28T05:54:19.028Z,18.20
2022-08-28T05:56:51.853Z,17.70
2022-08-28T05:59:26.097Z,14.00
2022-08-28T06:02:04.018Z,15.20
2022-08-28T06:04:40.855Z,18.10
2022-08-28T06:07:16.291Z,17.20
2022-08-28T06:09:49.397Z,14.20
2022-08-28T06:12:22.960Z,13.80
2022-08-28T06:14:56.466Z,15.70
2022-08-28T06:17:30.484Z,19.40
2022-08-28T06:20:03.990Z,17.00
2022-08-28T06:22:37.111Z,10.40
2022-08-28T06:25:14.984Z,11.50
2022-08-28T06:27:48.380Z,17.30
2022-08-28T06:30:21.782Z,16.60
2022-08-28T06:32:55.445Z,16.80
2022-08-28T06:35:28.528Z,17.20
2022-08-28T06:38:04.622Z,15.80
2022-08-28T06:40:50.198Z,13.30
2022-08-28T06:43:25.241Z,18.20
2022-08-28T06:46:00.640Z,14.90
2022-08-28T06:48:34.123Z,12.20
2022-08-28T06:51:10.632Z,18.90
2022-08-28T06:53:45.564Z,12.70
2022-08-28T06:56:26.260Z,14.20
2022-08-28T06:59:01.865Z,12.90
2022-08-28T07:01:38.401Z,15.90
2022-08-28T07:04:15.310Z,14.80
2022-08-28T07:06:54.364Z,13.70
2022-08-28T07:09:32.948Z,15.30
2022-08-28T07:12:06.096Z,15.80
2022-08-28T07:14:40.064Z,16.40
2022-08-28T07:17:13.384Z,17.00
2022-08-28T07:19:47.308Z,13.90
2022-08-28T07:22:20.408Z,14.40
2022-08-28T07:24:55.514Z,14.30
2022-08-28T07:27:28.709Z,16.40
2022-08-28T07:30:02.945Z,16.50
2022-08-28T07:32:37.403Z,17.30
2022-08-28T07:35:11.117Z,16.80
2022-08-28T07:37:44.851Z,19.60
2022-08-28T07:40:19.379Z,13.90
2022-08-28T07:43:10.768Z,13.00
2022-08-28T07:45:43.492Z,15.70
2022-08-28T07:48:16.947Z,13.30
2022-08-28T07:50:56.594Z,16.20
2022-08-28T07:53:32.169Z,14.00
2022-08-28T07:56:11.981Z,15.60
2022-08-28T07:58:46.003Z,20.30
2022-08-28T08:01:19.972Z,12.80
2022-08-28T08:03:55.894Z,12.90
2022-08-28T08:06:34.589Z,14.70
2022-08-28T08:09:09.798Z,14.30
2022-08-28T08:11:43.232Z,11.30
2022-08-28T08:14:17.455Z,14.50
2022-08-28T08:16:53.021Z,18.10
2022-08-28T08:19:26.064Z,12.50
2022-08-28T08:22:00.072Z,12.60
2022-08-28T08:24:33.281Z,14.40
2022-08-28T08:27:11.140Z,12.00
2022-08-28T08:29:44.411Z,12.60
2022-08-28T08:32:18.873Z,14.70
2022-08-28T08:34:56.295Z,15.40
2022-08-28T08:37:31.016Z,10.80
2022-08-28T08:40:10.456Z,17.20
2022-08-28T08:42:51.644Z,16.00
2022-08-28T08:45:27.260Z,15.60
2022-08-28T08:48:02.617Z,13.90
2022-08-28T08:50:38.247Z,10.90
2022-08-28T08:53:33.249Z,15.00
2022-08-28T08:56:07.046Z,11.40
2022-08-28T08:58:43.099Z,14.60
2022-08-28T09:01:59.983Z,10.80
2022-08-28T09:04:47.053Z,14.20
2022-08-28T09:07:23.179Z,15.30
2022-08-28T09:09:59.770Z,14.80
2022-08-28T09:12:37.461Z,15.10
2022-08-28T09:15:47.539Z,12.60
2022-08-28T09:18:36.810Z,14.50
2022-08-28T09:21:12.245Z,13.50
2022-08-28T09:23:45.275Z,10.90
2022-08-28T09:26:26.059Z,13.80
2022-08-28T09:31:44.409Z,10.80
2022-08-28T09:34:33.399Z,14.30
2022-08-28T09:37:13.909Z,11.90
2022-08-28T09:39:48.970Z,13.70
2022-08-28T09:42:46.055Z,15.80
2022-08-28T09:45:21.813Z,17.80
2022-08-28T09:47:59.846Z,12.30
2022-08-28T09:50:37.967Z,13.50
2022-08-28T09:53:15.838Z,13.50
2022-08-28T09:55:57.324Z,13.50
2022-08-28T09:58:47.456Z,14.60
2022-08-28T10:01:22.555Z,11.00
2022-08-28T10:04:15.534Z,16.50
2022-08-28T10:06:57.084Z,17.80
2022-08-28T10:09:51.276Z,12.40
2022-08-28T10:12:37.855Z,16.00
2022-08-28T10:15:30.264Z,14.30
2022-08-28T10:18:18.103Z,15.60
2022-08-28T10:21:12.947Z,15.70
2022-08-28T10:23:56.837Z,13.60
2022-08-28T10:26:47.360Z,13.40
2022-08-28T10:29:43.869Z,16.40
2022-08-28T10:32:28.649Z,12.60
2022-08-28T10:35:17.410Z,17.30
2022-08-28T10:38:06.292Z,14.30
2022-08-28T10:40:51.314Z,17.70
2022-08-28T10:43:40.756Z,16.70
2022-08-28T10:46:27.173Z,18.20
2022-08-28T10:49:18.230Z,13.60
2022-08-28T10:52:00.221Z,15.50
2022-08-28T10:54:55.253Z,16.50
2022-08-28T10:57:39.420Z,19.00
2022-08-28T11:00:16.552Z,13.90
2022-08-28T11:02:57.562Z,14.60
2022-08-28T11:05:46.638Z,15.30
2022-08-28T11:08:34.179Z,18.30
2022-08-28T11:11:14.552Z,15.10
2022-08-28T11:13:47.295Z,15.80
2022-08-28T11:16:31.929Z,13.00
2022-08-28T11:19:15.272Z,16.90
2022-08-28T11:22:04.975Z,16.20
2022-08-28T11:25:02.410Z,15.20
2022-08-28T11:27:41.514Z,14.20
2022-08-28T11:30:15.776Z,13.30
2022-08-28T11:32:57.657Z,15.40
2022-08-28T11:35:32.893Z,15.60
2022-08-28T11:38:05.957Z,16.10
2022-08-28T11:40:39.659Z,14.70
2022-08-28T11:43:17.837Z,15.40
2022-08-28T11:45:50.429Z,13.90
2022-08-28T11:48:49.585Z,13.80
2022-08-28T11:51:44.921Z,19.10
2022-08-28T11:54:36.791Z,19.80
2022-08-28T11:57:24.676Z,16.40
2022-08-28T12:00:05.309Z,13.50
2022-08-28T12:02:44.588Z,18.00
2022-08-28T12:05:20.271Z,17.60
2022-08-28T12:07:54.309Z,20.80
2022-08-28T12:10:27.526Z,11.30
2022-08-28T12:13:10.077Z,14.80
2022-08-28T12:15:44.772Z,13.50
2022-08-28T12:18:43.262Z,14.50
2022-08-28T12:21:27.868Z,14.80
2022-08-28T12:24:09.821Z,17.20
2022-08-28T12:26:57.036Z,13.80
2022-08-28T12:29:41.016Z,16.50
2022-08-28T12:32:14.147Z,14.30
2022-08-28T12:35:00.226Z,14.80
2022-08-28T12:37:52.004Z,21.00
2022-08-28T12:40:51.282Z,16.20
2022-08-28T12:43:41.672Z,15.50
2022-08-28T12:46:37.214Z,15.40
2022-08-28T12:49:32.848Z,16.20
2022-08-28T12:52:16.988Z,11.70
2022-08-28T12:54:51.809Z,13.60
2022-08-28T12:57:26.542Z,16.10
2022-08-28T13:00:12.405Z,16.80
2022-08-28T13:02:50.511Z,13.90
2022-08-28T13:05:44.399Z,15.90
2022-08-28T13:08:25.338Z,15.20
2022-08-28T13:10:59.523Z,14.50
2022-08-28T13:13:48.190Z,17.30
2022-08-28T13:16:45.659Z,11.40
2022-08-28T13:19:37.081Z,17.10
2022-08-28T13:22:32.071Z,10.00
2022-08-28T13:25:07.046Z,17.60
2022-08-28T13:27:40.412Z,11.60
2022-08-28T13:30:21.511Z,11.00
2022-08-28T13:33:23.073Z,11.20
2022-08-28T13:35:56.531Z,14.60
2022-08-28T13:38:29.629Z,13.50
2022-08-28T13:41:07.122Z,14.00
2022-08-28T13:43:49.014Z,11.50
2022-08-28T13:46:21.982Z,17.50
2022-08-28T13:48:54.894Z,11.50
2022-08-28T13:51:28.784Z,13.50
2022-08-28T13:54:03.386Z,17.00
2022-08-28T13:56:36.295Z,16.00
2022-08-28T13:59:09.224Z,13.40
2022-08-28T14:02:01.777Z,12.30
2022-08-28T14:04:37.508Z,12.20
2022-08-28T14:07:11.203Z,14.10
2022-08-28T14:09:44.395Z,11.50
2022-08-28T14:12:17.334Z,13.50
2022-08-28T14:14:53.176Z,11.10
2022-08-28T14:17:26.046Z,13.10
2022-08-28T14:20:00.863Z,12.40
2022-08-28T14:22:36.043Z,14.70
2022-08-28T14:25:10.779Z,13.60
2022-08-28T14:27:43.716Z,11.70
2022-08-28T14:30:16.559Z,13.80
2022-08-28T14:32:49.464Z,11.50
2022-08-28T14:35:23.185Z,12.50
2022-08-28T14:37:56.171Z,15.60
2022-08-28T14:40:29.328Z,12.70
2022-08-28T14:43:02.465Z,11.60
2022-08-28T14:45:35.270Z,14.90
2022-08-28T14:48:08.135Z,12.60
2022-08-28T14:50:45.546Z,14.10
2022-08-28T14:53:19.079Z,13.00
2022-08-28T14:55:53.029Z,15.40
2022-08-28T14:58:25.959Z,11.20
2022-08-28T15:00:59.267Z,11.20
2022-08-28T15:03:32.712Z,11.30
2022-08-28T15:06:07.752Z,10.90
2022-08-28T15:08:42.101Z,9.10
2022-08-28T15:11:18.709Z,8.10
2022-08-28T15:13:52.990Z,14.60
2022-08-28T15:16:30.409Z,10.50
2022-08-28T15:19:04.887Z,9.30
2022-08-28T15:21:40.094Z,9.00
2022-08-28T15:24:13.035Z,9.60
2022-08-28T15:26:46.349Z,9.80
2022-08-28T15:29:19.697Z,8.10
2022-08-28T15:31:53.464Z,13.20
2022-08-28T15:34:29.162Z,9.50
2022-08-28T15:37:02.837Z,12.80
2022-08-28T15:39:59.010Z,15.10
2022-08-28T15:42:32.347Z,14.20
2022-08-28T15:45:05.493Z,11.70
2022-08-28T15:47:39.262Z,11.50
2022-08-28T15:50:12.827Z,13.50
2022-08-28T15:52:45.907Z,9.50
2022-08-28T15:55:18.927Z,13.20
2022-08-28T15:57:52.303Z,9.40
2022-08-28T16:00:26.243Z,12.10
2022-08-28T16:03:01.595Z,12.80
2022-08-28T16:05:39.729Z,15.30
2022-08-28T16:08:15.147Z,16.70
2022-08-28T16:10:57.340Z,26.90
2022-08-28T16:13:30.202Z,28.70
2022-08-28T16:16:04.175Z,55.30
2022-08-28T16:18:37.747Z,58.10
2022-08-28T16:21:11.689Z,59.50
2022-08-28T16:23:45.101Z,72.30
2022-08-28T16:26:19.207Z,102.10
2022-08-28T16:28:53.457Z,128.50
2022-08-28T16:31:27.190Z,128.60
2022-08-28T16:34:01.422Z,99.50
2022-08-28T16:36:34.764Z,96.30
2022-08-28T16:39:12.525Z,89.00
2022-08-28T16:41:50.772Z,89.00
2022-08-28T16:44:26.916Z,89.40
2022-08-28T16:47:01.261Z,56.60
2022-08-28T16:49:35.166Z,46.10
2022-08-28T16:52:08.320Z,50.60
2022-08-28T16:54:48.628Z,51.00
2022-08-28T16:57:24.835Z,38.30
2022-08-28T16:59:58.106Z,28.80
2022-08-28T17:02:33.930Z,28.10
2022-08-28T17:05:08.364Z,26.10
2022-08-28T17:07:41.739Z,31.10
2022-08-28T17:10:16.672Z,26.00
2022-08-28T17:12:49.931Z,27.10
2022-08-28T17:15:23.529Z,41.60
2022-08-28T17:17:57.706Z,46.10
2022-08-28T17:20:50.153Z,48.20
2022-08-28T17:23:24.306Z,47.60
2022-08-28T17:25:58.849Z,47.60
2022-08-28T17:28:33.138Z,33.00
2022-08-28T17:31:08.173Z,26.70
2022-08-28T17:33:43.000Z,28.20
2022-08-28T17:36:32.639Z,24.20
2022-08-28T17:39:13.112Z,31.60
2022-08-28T17:41:47.745Z,27.00
2022-08-28T17:44:21.926Z,26.40
2022-08-28T17:46:55.453Z,26.70
2022-08-28T17:49:29.855Z,25.00
2022-08-28T17:52:04.032Z,24.70
2022-08-28T17:54:37.281Z,28.40
2022-08-28T17:57:10.648Z,27.00
2022-08-28T17:59:44.530Z,28.80
2022-08-28T18:02:18.359Z,25.80
2022-08-28T18:04:51.680Z,33.40
2022-08-28T18:07:24.910Z,25.80
2022-08-28T18:09:58.030Z,23.20
2022-08-28T18:12:32.557Z,24.80
2022-08-28T18:15:06.389Z,19.60
2022-08-28T18:17:42.878Z,25.90
2022-08-28T18:20:16.008Z,35.00
2022-08-28T18:22:50.345Z,23.30
2022-08-28T18:25:43.419Z,25.20
2022-08-28T18:28:27.794Z,29.20
2022-08-28T18:31:03.258Z,26.60
2022-08-28T18:33:41.897Z,26.20
2022-08-28T18:36:16.908Z,24.30
2022-08-28T18:38:50.543Z,30.50
2022-08-28T18:41:43.234Z,23.10
2022-08-28T18:44:24.072Z,23.90
2022-08-28T18:46:59.300Z,22.10
2022-08-28T18:49:33.149Z,26.50
2022-08-28T18:52:06.443Z,30.00
2022-08-28T18:54:40.123Z,25.10
2022-08-28T18:57:15.957Z,21.90
2022-08-28T18:59:52.604Z,22.20
2022-08-28T19:02:25.984Z,21.00
2022-08-28T19:04:59.576Z,26.90
2022-08-28T19:07:32.730Z,25.80
2022-08-28T19:10:22.741Z,19.30
2022-08-28T19:13:04.776Z,24.70
2022-08-28T19:15:39.260Z,22.50
2022-08-28T19:18:13.347Z,27.00
2022-08-28T19:20:48.000Z,16.70
2022-08-28T19:23:22.115Z,23.40
2022-08-28T19:25:55.755Z,22.10
2022-08-28T19:28:28.783Z,23.20
2022-08-28T19:31:02.422Z,23.40
2022-08-28T19:33:36.062Z,27.50
2022-08-28T19:36:09.286Z,20.40
2022-08-28T19:38:42.212Z,18.30
2022-08-28T19:41:16.043Z,23.80
2022-08-28T19:43:49.817Z,23.10
2022-08-28T19:46:23.407Z,26.40
2022-08-28T19:48:57.275Z,15.20
2022-08-28T19:51:30.826Z,23.00
2022-08-28T19:54:06.179Z,20.10
2022-08-28T19:56:40.577Z,19.10
2022-08-28T19:59:13.265Z,21.70
2022-08-28T20:01:47.016Z,20.00
2022-08-28T20:04:20.284Z,20.90
2022-08-28T20:06:54.268Z,20.70
2022-08-28T20:09:27.677Z,20.00
2022-08-28T20:12:01.556Z,21.80
2022-08-28T20:14:35.307Z,15.50
2022-08-28T20:17:08.381Z,24.40
2022-08-28T20:19:41.684Z,21.10
2022-08-28T20:22:14.491Z,17.90
2022-08-28T20:24:48.062Z,19.10
2022-08-28T20:27:21.961Z,17.60
2022-08-28T20:29:55.224Z,23.20
2022-08-28T20:32:28.559Z,16.90
2022-08-28T20:35:02.262Z,16.60
2022-08-28T20:37:45.018Z,17.90
2022-08-28T20:40:22.533Z,26.40
2022-08-28T20:42:55.543Z,29.20
2022-08-28T20:45:29.256Z,19.00
2022-08-28T20:48:03.149Z,22.80
2022-08-28T20:50:35.965Z,20.00
2022-08-28T20:53:09.106Z,20.70
2022-08-28T20:55:41.913Z,22.30
2022-08-28T20:58:15.795Z,23.10
2022-08-28T21:00:53.485Z,23.30
2022-08-28T21:03:34.235Z,20.10
2022-08-28T21:06:07.592Z,16.90
2022-08-28T21:08:41.367Z,17.40
2022-08-28T21:11:14.784Z,22.50
2022-08-28T21:13:48.922Z,17.00
2022-08-28T21:16:22.341Z,22.70
2022-08-28T21:19:14.787Z,19.00
2022-08-28T21:21:50.443Z,19.00
2022-08-28T21:24:28.217Z,15.10
2022-08-28T21:27:01.656Z,15.60
2022-08-28T21:29:35.031Z,14.40
2022-08-28T21:32:08.510Z,15.20
2022-08-28T21:34:41.720Z,11.60
2022-08-28T21:37:15.749Z,14.60
2022-08-28T21:39:49.155Z,13.90
2022-08-28T21:42:22.360Z,15.70
2022-08-28T21:44:55.950Z,12.60
2022-08-28T21:47:29.878Z,14.10
2022-08-28T21:50:03.674Z,15.30
2022-08-28T21:52:37.471Z,15.70
2022-08-28T21:55:14.361Z,15.40
2022-08-28T21:57:47.602Z,19.00
2022-08-28T22:00:27.182Z,13.20
2022-08-28T22:03:00.992Z,17.70
2022-08-28T22:05:34.711Z,13.80
2022-08-28T22:08:08.547Z,14.10
2022-08-28T22:10:44.240Z,13.80
2022-08-28T22:13:18.704Z,14.00
2022-08-28T22:15:52.469Z,14.50
2022-08-28T22:18:28.078Z,13.10
2022-08-28T22:21:31.734Z,13.80
2022-08-28T22:24:05.745Z,14.30
2022-08-28T22:26:39.565Z,15.20
2022-08-28T22:29:14.276Z,15.30
2022-08-28T22:31:48.154Z,12.50
2022-08-28T22:34:22.404Z,11.80
2022-08-28T22:36:55.900Z,12.30
2022-08-28T22:39:29.803Z,14.00
2022-08-28T22:42:04.024Z,14.20
2022-08-28T22:44:38.630Z,13.40
2022-08-28T22:47:13.156Z,12.60
2022-08-28T22:49:47.883Z,13.20
2022-08-28T22:52:21.316Z,14.40
2022-08-28T22:54:55.800Z,14.90
2022-08-28T22:57:30.427Z,12.40
2022-08-28T23:00:08.341Z,17.80
2022-08-28T23:02:43.422Z,14.90
2022-08-28T23:05:18.386Z,11.00
2022-08-28T23:07:51.909Z,10.10
2022-08-28T23:10:48.158Z,16.50
2022-08-28T23:13:22.505Z,12.90
2022-08-28T23:15:56.506Z,11.40
2022-08-28T23:18:46.250Z,15.50
2022-08-28T23:21:29.266Z,16.90
2022-08-28T23:24:03.074Z,12.60
2022-08-28T23:26:37.625Z,15.20
2022-08-28T23:29:12.433Z,11.90
2022-08-28T23:31:46.469Z,14.90
2022-08-28T23:34:22.103Z,13.20
2022-08-28T23:36:55.923Z,15.80
2022-08-28T23:39:32.743Z,13.30
2022-08-28T23:42:07.633Z,13.60
2022-08-28T23:44:41.443Z,12.50
2022-08-28T23:47:15.362Z,13.60
2022-08-28T23:49:49.397Z,14.60
2022-08-28T23:52:23.863Z,12.40
2022-08-28T23:54:58.446Z,10.90
2022-08-28T23:57:32.463Z,11.40
